createdAt,value
2022-11-27T00:00:07.758Z,35.75
2022-11-27T00:05:09.633Z,30.92
2022-11-27T00:10:12.218Z,32.17
2022-11-27T00:15:17.237Z,31.70
2022-11-27T00:20:19.198Z,34.17
2022-11-27T00:25:20.932Z,28.33
2022-11-27T00:30:22.922Z,32.35
2022-11-27T00:35:24.613Z,34.75
2022-11-27T00:40:26.398Z,32.15
2022-11-27T00:45:28.545Z,30.08
2022-11-27T00:50:32.117Z,27.80
2022-11-27T00:55:34.037Z,31.77
2022-11-27T01:00:35.901Z,30.40
2022-11-27T01:05:37.702Z,31.42
2022-11-27T01:10:39.529Z,31.13
2022-11-27T01:15:41.267Z,29.65
2022-11-27T01:20:43.135Z,27.50
2022-11-27T01:25:45.069Z,32.15
2022-11-27T01:30:47.018Z,29.58
2022-11-27T01:36:00.746Z,28.33
2022-11-27T01:41:05.708Z,33.65
2022-11-27T01:46:17.288Z,28.55
2022-11-27T01:51:20.424Z,27.92
2022-11-27T01:56:25.134Z,30.63
2022-11-27T02:01:27.020Z,33.53
2022-11-27T02:06:29.303Z,30.45
2022-11-27T02:11:59.446Z,29.63
2022-11-27T02:17:09.758Z,32.50
2022-11-27T02:22:20.299Z,30.85
2022-11-27T02:27:36.872Z,33.05
2022-11-27T02:32:57.333Z,27.30
2022-11-27T02:38:07.873Z,25.60
2022-11-27T02:43:17.896Z,30.92
2022-11-27T02:48:26.842Z,27.02
2022-11-27T02:53:37.972Z,31.95
2022-11-27T02:58:41.363Z,30.80
2022-11-27T03:03:46.682Z,29.95
2022-11-27T03:08:58.410Z,32.65
2022-11-27T03:14:04.694Z,33.83
2022-11-27T03:19:06.504Z,31.10
2022-11-27T03:24:09.925Z,30.40
2022-11-27T03:29:35.011Z,31.02
2022-11-27T03:34:37.617Z,29.45
2022-11-27T03:39:39.690Z,32.90
2022-11-27T03:45:04.568Z,33.25
2022-11-27T03:50:32.092Z,33.47
2022-11-27T03:55:50.870Z,30.77
2022-11-27T04:00:54.338Z,32.42
2022-11-27T04:05:57.256Z,41.25
2022-11-27T04:10:58.975Z,40.75
2022-11-27T04:16:02.133Z,40.10
2022-11-27T04:21:04.339Z,39.50
2022-11-27T04:26:06.172Z,35.40
2022-11-27T04:31:08.093Z,34.50
2022-11-27T04:36:09.925Z,31.33
2022-11-27T04:41:11.659Z,26.33
2022-11-27T04:46:13.489Z,27.00
2022-11-27T04:51:15.339Z,30.23
2022-11-27T04:56:17.326Z,24.88
2022-11-27T05:01:19.304Z,26.70
2022-11-27T05:06:22.725Z,23.98
2022-11-27T05:11:24.633Z,22.27
2022-11-27T05:16:26.423Z,26.77
2022-11-27T05:21:28.178Z,27.25
2022-11-27T05:26:30.078Z,24.75
2022-11-27T05:31:32.033Z,23.27
2022-11-27T05:36:34.950Z,22.80
2022-11-27T05:41:38.914Z,24.08
2022-11-27T05:46:43.652Z,23.95
2022-11-27T05:51:51.046Z,22.95
2022-11-27T05:56:53.410Z,29.98
2022-11-27T06:01:55.162Z,31.92
2022-11-27T06:06:56.909Z,33.75
2022-11-27T06:11:58.733Z,29.45
2022-11-27T06:17:03.309Z,31.30
2022-11-27T06:22:05.001Z,31.20
2022-11-27T06:27:07.043Z,37.03
2022-11-27T06:32:08.985Z,48.50
2022-11-27T06:37:13.337Z,46.70
2022-11-27T06:42:15.466Z,24.67
2022-11-27T06:47:17.186Z,27.67
2022-11-27T06:52:18.882Z,25.15
2022-11-27T06:57:20.632Z,23.65
2022-11-27T07:02:22.663Z,27.25
2022-11-27T07:07:24.498Z,24.92
2022-11-27T07:12:26.349Z,23.38
2022-11-27T07:17:28.140Z,23.77
2022-11-27T07:22:32.610Z,23.52
2022-11-27T07:27:34.532Z,23.98
2022-11-27T07:32:36.505Z,24.20
2022-11-27T07:37:38.490Z,22.95
2022-11-27T07:42:40.450Z,25.42
2022-11-27T07:47:42.599Z,27.90
2022-11-27T07:52:44.310Z,25.58
2022-11-27T07:57:46.030Z,24.75
2022-11-27T08:02:47.741Z,27.08
2022-11-27T08:07:49.562Z,31.50
2022-11-27T08:12:51.596Z,29.08
2022-11-27T08:17:53.372Z,33.83
2022-11-27T08:22:59.643Z,27.85
2022-11-27T08:28:04.630Z,23.85
2022-11-27T08:33:06.470Z,23.27
2022-11-27T08:38:08.300Z,26.27
2022-11-27T08:43:10.193Z,20.63
2022-11-27T08:48:11.914Z,18.95
2022-11-27T08:53:14.338Z,19.63
2022-11-27T08:58:17.293Z,21.13
2022-11-27T09:03:19.223Z,17.75
2022-11-27T09:08:21.455Z,15.77
2022-11-27T09:13:23.720Z,19.23
2022-11-27T09:18:25.522Z,19.15
2022-11-27T09:23:28.315Z,21.17
2022-11-27T09:28:31.973Z,21.40
2022-11-27T09:33:35.946Z,21.65
2022-11-27T09:38:38.561Z,24.75
2022-11-27T09:43:52.797Z,20.35
2022-11-27T09:48:56.452Z,22.38
2022-11-27T09:54:04.722Z,24.95
2022-11-27T09:59:15.217Z,23.15
2022-11-27T10:04:19.848Z,27.85
2022-11-27T10:09:31.549Z,29.83
2022-11-27T10:14:58.169Z,29.88
2022-11-27T10:20:02.975Z,26.00
2022-11-27T10:25:34.806Z,30.23
2022-11-27T10:31:09.650Z,24.95
2022-11-27T10:36:19.365Z,27.05
2022-11-27T10:41:48.818Z,21.40
2022-11-27T10:46:53.681Z,24.92
2022-11-27T10:51:55.546Z,28.15
2022-11-27T10:57:24.467Z,22.02
2022-11-27T11:02:29.462Z,24.17
2022-11-27T11:07:31.303Z,22.38
2022-11-27T11:12:33.378Z,24.58
2022-11-27T11:17:37.124Z,22.30
2022-11-27T11:22:46.335Z,24.52
2022-11-27T11:27:50.183Z,24.17
2022-11-27T11:32:59.726Z,26.17
2022-11-27T11:38:04.977Z,25.30
2022-11-27T11:43:23.094Z,24.65
2022-11-27T11:48:27.033Z,23.55
2022-11-27T11:53:48.110Z,29.40
2022-11-27T11:59:00.751Z,30.58
2022-11-27T12:04:27.134Z,20.90
2022-11-27T12:10:00.143Z,20.73
2022-11-27T12:15:23.509Z,26.25
2022-11-27T12:20:42.015Z,26.48
2022-11-27T12:26:16.859Z,25.05
2022-11-27T12:31:27.967Z,26.77
2022-11-27T12:37:01.457Z,27.25
2022-11-27T12:42:20.491Z,30.02
2022-11-27T12:47:37.279Z,29.17
2022-11-27T12:52:45.905Z,26.42
2022-11-27T12:58:07.033Z,29.92
2022-11-27T13:03:27.411Z,28.05
2022-11-27T13:09:00.502Z,29.58
2022-11-27T13:14:21.834Z,29.20
2022-11-27T13:19:39.826Z,30.92
2022-11-27T13:24:42.031Z,33.35
2022-11-27T13:30:08.001Z,29.63
2022-11-27T13:35:41.305Z,28.50
2022-11-27T13:40:49.806Z,26.52
2022-11-27T13:45:52.164Z,26.95
2022-11-27T13:50:54.676Z,30.98
2022-11-27T13:55:57.681Z,33.60
2022-11-27T14:01:12.848Z,41.75
2022-11-27T14:06:26.141Z,37.88
2022-11-27T14:11:45.897Z,37.30
2022-11-27T14:16:58.726Z,37.75
2022-11-27T14:22:01.490Z,44.97
2022-11-27T14:27:17.796Z,41.35
2022-11-27T14:32:20.670Z,43.00
2022-11-27T14:37:27.699Z,42.05
2022-11-27T14:42:32.999Z,49.58
2022-11-27T14:47:51.408Z,42.53
2022-11-27T14:52:57.484Z,44.95
2022-11-27T14:57:59.766Z,47.33
2022-11-27T15:03:09.730Z,43.60
2022-11-27T15:08:14.640Z,43.38
2022-11-27T15:13:24.400Z,45.17
2022-11-27T15:18:28.163Z,48.78
2022-11-27T15:23:34.274Z,47.75
2022-11-27T15:28:40.459Z,52.42
2022-11-27T15:33:42.273Z,47.55
2022-11-27T15:38:45.743Z,51.05
2022-11-27T15:43:47.494Z,49.25
2022-11-27T15:48:49.299Z,53.10
2022-11-27T15:53:51.062Z,44.83
2022-11-27T15:58:52.815Z,48.85
2022-11-27T16:03:54.665Z,46.75
2022-11-27T16:09:01.530Z,50.95
2022-11-27T16:14:03.469Z,40.85
2022-11-27T16:19:06.563Z,39.33
2022-11-27T16:24:11.685Z,32.65
2022-11-27T16:29:13.431Z,38.60
2022-11-27T16:34:16.496Z,35.65
2022-11-27T16:39:18.488Z,36.75
2022-11-27T16:44:20.401Z,34.33
2022-11-27T16:49:22.571Z,41.92
2022-11-27T16:54:24.317Z,43.40
2022-11-27T16:59:26.176Z,42.25
2022-11-27T17:04:27.997Z,40.20
2022-11-27T17:09:31.238Z,38.60
2022-11-27T17:14:33.233Z,40.47
2022-11-27T17:19:35.112Z,36.75
2022-11-27T17:24:37.012Z,37.15
2022-11-27T17:29:39.253Z,37.42
2022-11-27T17:34:41.566Z,36.80
2022-11-27T17:39:43.978Z,38.30
2022-11-27T17:44:45.950Z,37.60
2022-11-27T17:49:47.892Z,41.08
2022-11-27T17:54:49.716Z,40.90
2022-11-27T17:59:51.570Z,37.22
2022-11-27T18:04:53.514Z,37.47
2022-11-27T18:09:57.119Z,40.58
2022-11-27T18:15:01.375Z,38.15
2022-11-27T18:20:04.498Z,41.35
2022-11-27T18:25:06.432Z,40.25
2022-11-27T18:30:09.246Z,38.70
2022-11-27T18:35:11.235Z,42.85
2022-11-27T18:40:13.150Z,42.15
2022-11-27T18:45:31.813Z,44.20
2022-11-27T18:50:35.666Z,42.10
2022-11-27T18:55:37.418Z,45.42
2022-11-27T19:00:39.428Z,41.40
2022-11-27T19:05:41.170Z,45.80
2022-11-27T19:10:42.962Z,44.65
2022-11-27T19:15:46.211Z,38.05
2022-11-27T19:20:48.208Z,42.13
2022-11-27T19:25:50.033Z,42.67
2022-11-27T19:30:52.408Z,36.65
2022-11-27T19:36:03.298Z,40.28
2022-11-27T19:41:13.801Z,36.58
2022-11-27T19:46:33.201Z,37.60
2022-11-27T19:51:37.601Z,36.55
2022-11-27T19:56:40.539Z,35.28
2022-11-27T20:01:42.829Z,33.95
2022-11-27T20:06:44.643Z,35.25
2022-11-27T20:11:46.396Z,37.10
2022-11-27T20:16:48.265Z,34.38
2022-11-27T20:21:50.137Z,34.50
2022-11-27T20:26:51.913Z,30.73
2022-11-27T20:31:53.896Z,36.10
2022-11-27T20:36:55.706Z,32.95
2022-11-27T20:41:58.516Z,35.58
2022-11-27T20:47:00.282Z,31.42
2022-11-27T20:52:30.998Z,32.30
2022-11-27T21:10:25.206Z,30.80
2022-11-27T21:15:27.009Z,36.63
2022-11-27T21:20:30.217Z,32.92
2022-11-27T21:25:31.997Z,32.20
2022-11-27T21:30:34.321Z,30.45
2022-11-27T21:35:40.183Z,35.53
2022-11-27T21:40:42.183Z,35.75
2022-11-27T21:45:44.131Z,31.63
2022-11-27T21:50:45.989Z,30.83
2022-11-27T21:55:47.873Z,30.80
2022-11-27T22:00:50.154Z,34.28
2022-11-27T22:06:04.210Z,37.20
2022-11-27T22:11:11.353Z,38.42
2022-11-27T22:16:19.437Z,44.85
2022-11-27T22:21:21.581Z,40.97
2022-11-27T22:26:24.857Z,37.65
2022-11-27T22:31:35.316Z,40.05
2022-11-27T22:36:37.204Z,35.90
2022-11-27T22:41:40.134Z,39.63
2022-11-27T22:46:42.590Z,36.83
2022-11-27T22:51:45.902Z,35.00
2022-11-27T22:56:47.682Z,36.80
2022-11-27T23:01:49.562Z,34.92
2022-11-27T23:06:51.282Z,33.70
2022-11-27T23:11:53.361Z,35.90
2022-11-27T23:16:55.533Z,31.67
2022-11-27T23:21:57.315Z,28.63
2022-11-27T23:26:59.059Z,30.42
2022-11-27T23:32:00.831Z,30.83
2022-11-27T23:37:02.579Z,33.30
2022-11-27T23:42:04.473Z,31.85
2022-11-27T23:47:06.294Z,35.15
2022-11-27T23:52:11.833Z,35.55
2022-11-27T23:57:16.096Z,35.83
